Scottish Airport Reports

Civil airfields updated at H+20 and H+50
RAF airfields updated at H+50 only

EGPD - Aberdeen
Distance from station: NNE 19mi, 31km
Updated: 17/06/2018 22:50
Partly cloudy
Partly cloudy
 Wind from SSW
Wind: SSW 9 mph , 15 km/h
Temperature: 13°C
Dew Point: 11°C
Humidity: 88%
Barometer: 1005 hPa
Clouds: Partly cloudy
Visibility: 6 miles , 10 km
Cloud details: Partly cloudy 1700 ft
2018/06/17 21:50 EGPD 172150Z 21008KT 170V240 9999 SCT017 13/11 Q1005
EGPN - Dundee
Distance from station: SW 41mi, 66km
Updated: 17/06/2018 21:20
NOT Current
Mostly cloudy
Mostly cloudy
 Wind from WSW
Wind: WSW 10 mph , 17 km/h
Temperature: 15°C
Dew Point: 13°C
Humidity: 88%
Barometer: 1007 hPa
Clouds: Mostly cloudy
Visibility: 6 miles , 10 km
Cloud details: Mostly cloudy 1700 ft
2018/06/17 20:20 EGPN 172020Z 24009KT 9999 BKN017 15/13 Q1007
 
EGQS - RAF Lossiemouth
Distance from station: NNW 63mi, 102km
Updated: 17/06/2018 22:50
Mostly cloudy
Mostly cloudy
 Wind from SSW
Wind: SSW 9 mph , 15 km/h
Temperature: 13°C
Dew Point: 10°C
Humidity: 82%
Barometer: 1004 hPa
Clouds: Mostly cloudy
Visibility: 6 miles , 10 km
Cloud details: Few Clouds 4000 ft
Mostly cloudy 18000 ft
2018/06/17 21:50 EGQS 172150Z 20008KT 9999 FEW040 BKN180 13/10 Q1004 BLU
EGPE - Inverness
Distance from station: WNW 73mi, 117km
Updated: 17/06/2018 22:50
Mostly cloudy
Mostly cloudy
 Wind from SW
Wind: SW 13 mph , 20 km/h
Temperature: 14°C
Dew Point: 11°C
Humidity: 82%
Barometer: 1004 hPa
Clouds: Mostly cloudy
Visibility: 6 miles , 10 km
Cloud details: Mostly cloudy 3100 ft
2018/06/17 21:50 EGPE 172150Z AUTO 23011KT 9999 BKN031/// 14/11 Q1004
 
EGPH - Edinburgh
Distance from station: SSW 77mi, 125km
Updated: 17/06/2018 22:50
Mostly cloudy
Mostly cloudy
 Wind from WSW
Wind: WSW 8 mph , 13 km/h
Temperature: 13°C
Dew Point: 13°C
Humidity: 100%
Barometer: 1008 hPa
Clouds: Mostly cloudy
Visibility: 6 miles , 10 km
Cloud details: Partly cloudy 1000 ft
Mostly cloudy 2200 ft
2018/06/17 21:50 EGPH 172150Z 25007KT 9999 SCT010 BKN022 13/13 Q1008
EGPC - Wick
Distance from station: NNW 107mi, 172km
Updated: 17/06/2018 22:50
Clear
Clear
 Wind from SSW
Wind: SSW 10 mph , 17 km/h
Temperature: 13°C
Dew Point: 11°C
Humidity: 88%
Barometer: 1003 hPa
Clouds: Clear
Visibility: 6 miles , 10 km
2018/06/17 21:50 EGPC 172150Z AUTO 20009KT 9999 NCD 13/11 Q1003
 
EGPF - Glasgow
Distance from station: SW 107mi, 172km
Updated: 17/06/2018 22:50
Haze, Overcast
Haze, Overcast
 Wind from WSW
Wind: WSW 10 mph , 17 km/h
Temperature: 13°C
Dew Point: 12°C
Humidity: 94%
Barometer: 1009 hPa
Summary: Haze
Clouds: Overcast
Visibility: 3 miles , 5 km
Cloud details: Mostly cloudy 1000 ft
Mostly cloudy 1400 ft
Overcast 2900 ft
2018/06/17 21:50 EGPF 172150Z 25009KT 5000 HZ BKN010 BKN014 OVC029 13/12 Q1009 RERA
EGPK - Prestwick
Distance from station: SW 130mi, 209km
Updated: 17/06/2018 22:50
Light rain, Drizzle, Mostly cloudy
Light rain, Drizzle, Mostly cloudy
 Wind from WSW
Wind: WSW 9 mph , 15 km/h
Temperature: 13°C
Dew Point: 12°C
Humidity: 94%
Barometer: 1010 hPa
Summary: Light rain, Drizzle
Clouds: Mostly cloudy
Visibility: 5 miles , 8 km
Cloud details: Few Clouds 400 ft
Partly cloudy 900 ft
Mostly cloudy 1800 ft
2018/06/17 21:50 EGPK 172150Z 24008KT 8000 -RADZ FEW004 SCT009 BKN018 13/12 Q1010
 
EGPA - Kirkwall, Orkney
Distance from station: N 140mi, 225km
Updated: 17/06/2018 22:50
Drizzle, Partly cloudy
Drizzle, Partly cloudy
 Wind from S
Wind: S 12 mph , 19 km/h
Temperature: 12°C
Dew Point: 11°C
Humidity: 94%
Barometer: 1002 hPa
Summary: Drizzle
Clouds: Partly cloudy
Visibility: 6 miles , 9 km
Cloud details: Partly cloudy 3300 ft
Partly cloudy 4500 ft
2018/06/17 21:50 EGPA 172150Z AUTO 18010KT 9000 DZ SCT033/// SCT045/// 12/11 Q1002
EGPO - Stornoway, Outer Hebrides
Distance from station: WNW 169mi, 273km
Updated: 17/06/2018 22:50
Light rain, Overcast
Light rain, Overcast
 Wind from WSW
Wind: WSW 16 mph , 26 km/h
Temperature: 12°C
Dew Point: 11°C
Humidity: 94%
Barometer: 1002 hPa
Summary: Light rain
Clouds: Overcast
Visibility: 6 miles , 10 km
Cloud details: Few Clouds 700 ft
Mostly cloudy 1200 ft
Overcast 2700 ft
2018/06/17 21:50 EGPO 172150Z AUTO 24014KT 9999 -RA FEW007/// BKN012/// OVC027/// 12/11 Q1002
 
EGPI - Islay, Inner Hebrides
Distance from station: WSW 172mi, 276km
Updated: 17/06/2018 22:20
Mostly cloudy
Mostly cloudy
 Wind from WSW
Wind: WSW 15 mph , 24 km/h
Temperature: 12°C
Dew Point: 11°C
Humidity: 94%
Barometer: 1009 hPa
Clouds: Mostly cloudy
Visibility: 6 miles , 10 km
Cloud details: Mostly cloudy 2000 ft
Mostly cloudy 2700 ft
2018/06/17 21:20 EGPI 172120Z AUTO 24013KT 220V280 9999 // BKN020/// BKN027/// 12/11 Q1009
EGPU - Tiree, Inner Hebrides
Distance from station: W 172mi, 276km
Updated: 17/06/2018 22:20
Mostly cloudy
Mostly cloudy
 Wind from WSW
Wind: WSW 15 mph , 24 km/h
Temperature: 11°C
Dew Point: 11°C
Humidity: 100%
Barometer: 1007 hPa
Clouds: Mostly cloudy
Visibility: 6 miles , 10 km
Cloud details: Few Clouds 1200 ft
Mostly cloudy 1800 ft
2018/06/17 21:20 EGPU 172120Z AUTO 24013KT 210V270 9999 FEW012/// BKN018/// 11/11 Q1007
 
EGPB - Sumburgh, Shetland
Distance from station: NNE 208mi, 332km
Updated: 17/06/2018 22:50
Clear
Clear
 Wind from SSE
Wind: SSE 12 mph , 19 km/h
Temperature: 11°C
Dew Point: 10°C
Humidity: 94%
Barometer: 1003 hPa
Clouds: Clear
Visibility: 6 miles , 10 km
2018/06/17 21:50 EGPB 172150Z AUTO 16010KT 9999 NCD 11/10 Q1003
EGPM - Scatsa, Shetland
Distance from station: NNE 245mi, 392km
Updated: 17/06/2018 22:50
Clear
Clear
 Wind from SSE
Wind: SSE 14 mph , 22 km/h
Temperature: 11°C
Dew Point: 8°C
Humidity: 82%
Barometer: 1003 hPa
Clouds: Clear
Visibility: 6 miles , 10 km
2018/06/17 21:50 EGPM 172150Z AUTO 15012KT 9999 NCD 11/08 Q1003
-->